createdAt,value
2023-11-06T00:01:03.275Z,4.05
2023-11-06T00:04:29.395Z,4.28
2023-11-06T00:07:58.653Z,5.28
2023-11-06T00:11:27.196Z,3.20
2023-11-06T00:14:53.427Z,4.82
2023-11-06T00:18:19.536Z,4.68
2023-11-06T00:21:45.399Z,4.05
2023-11-06T00:25:17.028Z,4.40
2023-11-06T00:28:42.820Z,5.00
2023-11-06T00:32:09.412Z,3.85
2023-11-06T00:35:35.102Z,3.92
2023-11-06T00:39:05.001Z,3.45
2023-11-06T00:42:33.653Z,3.97
2023-11-06T00:46:01.209Z,4.18
2023-11-06T00:49:28.898Z,3.05
2023-11-06T00:52:58.349Z,3.33
2023-11-06T00:56:24.326Z,3.00
2023-11-06T00:59:54.197Z,3.45
2023-11-06T01:03:20.433Z,3.25
2023-11-06T01:06:47.430Z,3.35
2023-11-06T01:10:15.835Z,2.60
2023-11-06T01:13:42.232Z,3.05
2023-11-06T01:17:14.022Z,3.03
2023-11-06T01:20:40.402Z,3.08
2023-11-06T01:24:06.496Z,2.53
2023-11-06T01:27:32.661Z,3.13
2023-11-06T01:30:58.518Z,3.30
2023-11-06T01:34:27.709Z,2.92
2023-11-06T01:37:53.469Z,2.78
2023-11-06T01:41:19.543Z,2.50
2023-11-06T01:44:45.355Z,3.58
2023-11-06T01:48:11.693Z,2.38
2023-11-06T01:51:41.002Z,2.58
2023-11-06T01:55:07.123Z,2.70
2023-11-06T01:58:33.630Z,3.10
2023-11-06T02:02:00.539Z,2.70
2023-11-06T02:05:26.302Z,3.28
2023-11-06T02:08:55.180Z,3.10
2023-11-06T02:12:20.532Z,2.95
2023-11-06T02:15:47.792Z,2.78
2023-11-06T02:19:13.158Z,3.15
2023-11-06T02:22:39.790Z,3.38
2023-11-06T02:26:08.489Z,3.03
2023-11-06T02:29:35.225Z,3.42
2023-11-06T02:33:01.040Z,3.10
2023-11-06T02:36:29.329Z,2.67
2023-11-06T02:39:55.087Z,2.95
2023-11-06T02:43:23.927Z,2.72
2023-11-06T02:46:49.356Z,3.03
2023-11-06T02:50:16.271Z,2.33
2023-11-06T02:53:41.714Z,2.90
2023-11-06T02:57:07.580Z,2.75
2023-11-06T03:00:36.092Z,2.35
2023-11-06T03:04:02.755Z,2.08
2023-11-06T03:07:28.732Z,2.00
2023-11-06T03:10:55.155Z,1.70
2023-11-06T03:14:20.864Z,1.88
2023-11-06T03:17:50.694Z,2.30
2023-11-06T03:21:18.128Z,1.77
2023-11-06T03:24:44.746Z,2.20
2023-11-06T03:28:10.172Z,2.10
2023-11-06T03:31:36.100Z,1.98
2023-11-06T03:35:04.600Z,1.80
2023-11-06T03:38:30.589Z,2.08
2023-11-06T03:41:56.696Z,1.52
2023-11-06T03:45:22.919Z,1.63
2023-11-06T03:48:48.662Z,1.45
2023-11-06T03:52:17.992Z,1.90
2023-11-06T03:55:43.633Z,1.52
2023-11-06T03:59:09.797Z,1.90
2023-11-06T04:02:35.225Z,2.10
2023-11-06T04:06:01.961Z,2.10
2023-11-06T04:09:30.101Z,1.88
2023-11-06T04:12:55.846Z,2.28
2023-11-06T04:16:22.004Z,1.88
2023-11-06T04:19:47.750Z,1.17
2023-11-06T04:23:13.232Z,2.10
2023-11-06T04:26:43.630Z,1.50
2023-11-06T04:30:09.992Z,1.73
2023-11-06T04:33:36.207Z,1.30
2023-11-06T04:37:01.938Z,1.52
2023-11-06T04:40:29.944Z,1.25
2023-11-06T04:43:58.654Z,1.05
2023-11-06T04:47:27.454Z,1.20
2023-11-06T04:50:54.029Z,1.00
2023-11-06T04:54:20.039Z,0.95
2023-11-06T04:57:46.229Z,0.93
2023-11-06T05:01:15.091Z,1.00
2023-11-06T05:04:40.521Z,1.23
2023-11-06T05:08:06.715Z,1.73
2023-11-06T05:11:32.243Z,1.60
2023-11-06T05:14:58.219Z,1.30
2023-11-06T05:18:26.785Z,1.77
2023-11-06T05:21:53.569Z,1.00
2023-11-06T05:25:19.266Z,1.50
2023-11-06T05:28:45.644Z,1.48
2023-11-06T05:32:13.669Z,1.20
2023-11-06T05:35:42.156Z,1.30
2023-11-06T05:39:08.989Z,1.40
2023-11-06T05:42:35.217Z,1.50
2023-11-06T05:46:00.994Z,1.40
2023-11-06T05:49:27.028Z,1.10
2023-11-06T05:52:55.361Z,1.00
2023-11-06T05:56:24.333Z,1.20
2023-11-06T05:59:50.080Z,1.10
2023-11-06T06:03:22.498Z,0.93
2023-11-06T06:06:52.265Z,1.20
2023-11-06T06:10:21.142Z,1.17
2023-11-06T06:13:47.586Z,1.08
2023-11-06T06:17:13.591Z,1.77
2023-11-06T06:20:39.103Z,1.65
2023-11-06T06:24:06.784Z,1.40
2023-11-06T06:27:35.139Z,1.33
2023-11-06T06:31:01.211Z,1.50
2023-11-06T06:34:27.035Z,1.77
2023-11-06T06:37:53.317Z,1.38
2023-11-06T06:41:19.081Z,1.33
2023-11-06T06:44:47.823Z,1.67
2023-11-06T06:48:17.393Z,1.70
2023-11-06T06:51:45.835Z,2.13
2023-11-06T06:55:11.791Z,1.90
2023-11-06T06:58:38.668Z,2.13
2023-11-06T07:02:07.059Z,2.40
2023-11-06T07:05:33.369Z,2.35
2023-11-06T07:08:59.232Z,2.47
2023-11-06T07:12:26.808Z,2.28
2023-11-06T07:15:52.773Z,2.38
2023-11-06T07:19:21.492Z,2.22
2023-11-06T07:22:47.327Z,2.20
2023-11-06T07:26:13.386Z,2.72
2023-11-06T07:29:39.459Z,2.90
2023-11-06T07:33:07.215Z,1.95
2023-11-06T07:36:37.676Z,2.42
2023-11-06T07:40:06.093Z,3.20
2023-11-06T07:43:32.136Z,2.00
2023-11-06T07:46:58.289Z,3.25
2023-11-06T07:50:24.755Z,2.95
2023-11-06T07:53:54.837Z,2.80
2023-11-06T07:57:20.512Z,2.28
2023-11-06T08:00:50.239Z,2.72
2023-11-06T08:04:18.215Z,2.50
2023-11-06T08:07:44.677Z,2.60
2023-11-06T08:11:15.701Z,2.10
2023-11-06T08:14:42.558Z,1.92
2023-11-06T08:18:08.342Z,2.35
2023-11-06T08:21:34.614Z,2.20
2023-11-06T08:25:00.831Z,3.15
2023-11-06T08:28:31.132Z,2.38
2023-11-06T08:31:56.799Z,2.00
2023-11-06T08:35:23.170Z,2.63
2023-11-06T08:38:49.074Z,2.00
2023-11-06T08:42:15.823Z,2.90
2023-11-06T08:45:44.382Z,2.80
2023-11-06T08:49:11.673Z,2.45
2023-11-06T08:52:38.493Z,2.40
2023-11-06T08:56:04.642Z,2.20
2023-11-06T08:59:30.708Z,2.53
2023-11-06T09:02:59.462Z,2.00
2023-11-06T09:06:25.416Z,1.73
2023-11-06T09:09:53.252Z,1.83
2023-11-06T09:13:21.003Z,2.15
2023-11-06T09:16:47.806Z,1.98
2023-11-06T09:20:17.314Z,2.17
2023-11-06T09:23:43.982Z,2.20
2023-11-06T09:27:09.777Z,1.98
2023-11-06T09:30:37.768Z,2.08
2023-11-06T09:34:03.606Z,2.47
2023-11-06T09:37:32.628Z,1.98
2023-11-06T09:40:58.536Z,2.67
2023-11-06T09:44:24.940Z,1.80
2023-11-06T09:47:53.818Z,1.67
2023-11-06T09:51:20.449Z,2.22
2023-11-06T09:54:50.052Z,2.03
2023-11-06T09:58:16.112Z,1.80
2023-11-06T10:01:42.259Z,1.70
2023-11-06T10:05:16.409Z,1.55
2023-11-06T10:08:43.017Z,1.90
2023-11-06T10:12:20.618Z,1.70
2023-11-06T10:15:46.951Z,1.85
2023-11-06T10:19:14.176Z,1.88
2023-11-06T10:22:41.702Z,1.60
2023-11-06T10:26:13.527Z,1.77
2023-11-06T10:29:42.467Z,2.10
2023-11-06T10:33:16.189Z,1.77
2023-11-06T10:36:42.350Z,1.77
2023-11-06T10:40:09.002Z,1.58
2023-11-06T10:43:43.322Z,1.80
2023-11-06T10:47:20.796Z,1.88
2023-11-06T10:50:51.121Z,1.65
2023-11-06T10:54:16.865Z,1.98
2023-11-06T10:57:45.371Z,1.90
2023-11-06T11:01:11.621Z,1.60
2023-11-06T11:04:41.587Z,1.63
2023-11-06T11:08:07.934Z,1.45
2023-11-06T11:11:34.556Z,1.77
2023-11-06T11:15:01.344Z,1.80
2023-11-06T11:18:32.927Z,1.65
2023-11-06T11:22:10.043Z,1.80
2023-11-06T11:25:52.188Z,1.92
2023-11-06T11:29:19.192Z,1.98
2023-11-06T11:32:53.600Z,1.75
2023-11-06T11:36:32.359Z,1.70
2023-11-06T11:40:03.377Z,1.50
2023-11-06T11:43:45.623Z,1.60
2023-11-06T11:47:12.821Z,1.67
2023-11-06T11:50:45.510Z,2.22
2023-11-06T11:54:12.896Z,1.40
2023-11-06T11:57:43.318Z,1.77
2023-11-06T12:01:11.741Z,2.92
2023-11-06T12:04:37.702Z,2.00
2023-11-06T12:08:04.560Z,1.80
2023-11-06T12:11:31.537Z,1.45
2023-11-06T12:15:02.024Z,1.60
2023-11-06T12:18:29.088Z,1.30
2023-11-06T12:22:04.744Z,1.65
2023-11-06T12:25:31.799Z,1.30
2023-11-06T12:28:59.056Z,1.40
2023-11-06T12:32:32.050Z,1.73
2023-11-06T12:35:58.792Z,1.30
2023-11-06T12:39:33.721Z,1.70
2023-11-06T12:43:02.302Z,1.25
2023-11-06T12:46:30.571Z,2.10
2023-11-06T12:50:00.587Z,1.67
2023-11-06T12:53:26.303Z,1.30
2023-11-06T12:56:53.936Z,1.60
2023-11-06T13:00:29.053Z,1.38
2023-11-06T13:03:56.430Z,1.10
2023-11-06T13:07:25.300Z,2.08
2023-11-06T13:10:51.739Z,1.45
2023-11-06T13:14:17.483Z,1.50
2023-11-06T13:17:44.872Z,1.02
2023-11-06T13:21:20.579Z,1.20
2023-11-06T13:24:50.603Z,1.17
2023-11-06T13:28:17.799Z,1.45
2023-11-06T13:31:44.630Z,1.05
2023-11-06T13:35:12.486Z,1.30
2023-11-06T13:38:39.235Z,1.48
2023-11-06T13:42:11.045Z,1.33
2023-11-06T13:45:37.573Z,1.23
2023-11-06T13:49:06.267Z,1.63
2023-11-06T13:52:43.905Z,1.65
2023-11-06T13:56:21.725Z,1.65
2023-11-06T13:59:52.809Z,1.67
2023-11-06T14:03:19.835Z,1.73
2023-11-06T14:06:49.151Z,1.52
2023-11-06T14:10:29.926Z,1.40
2023-11-06T14:13:57.293Z,1.45
2023-11-06T14:17:28.948Z,1.60
2023-11-06T14:20:57.698Z,1.50
2023-11-06T14:24:23.900Z,1.80
2023-11-06T14:27:52.880Z,1.60
2023-11-06T14:31:18.341Z,1.30
2023-11-06T14:34:48.949Z,1.80
2023-11-06T14:38:15.732Z,1.55
2023-11-06T14:41:42.337Z,1.92
2023-11-06T14:45:12.086Z,2.03
2023-11-06T14:48:43.515Z,1.98
2023-11-06T14:52:15.011Z,1.83
2023-11-06T14:55:41.312Z,1.50
2023-11-06T14:59:10.404Z,1.70
2023-11-06T15:02:36.612Z,1.83
2023-11-06T15:06:04.291Z,1.88
2023-11-06T15:09:35.948Z,1.58
2023-11-06T15:13:04.484Z,1.52
2023-11-06T15:16:32.838Z,2.08
2023-11-06T15:19:58.870Z,1.55
2023-11-06T15:23:27.154Z,1.80
2023-11-06T15:26:57.930Z,1.92
2023-11-06T15:30:25.155Z,1.58
2023-11-06T15:33:52.629Z,2.10
2023-11-06T15:37:18.955Z,1.83
2023-11-06T15:40:46.407Z,1.90
2023-11-06T15:44:15.333Z,1.80
2023-11-06T15:47:41.222Z,2.00
2023-11-06T15:51:10.198Z,2.30
2023-11-06T15:54:45.243Z,2.20
2023-11-06T15:58:13.438Z,1.80
2023-11-06T16:01:45.504Z,2.25
2023-11-06T16:05:15.209Z,2.63
2023-11-06T16:08:43.279Z,2.15
2023-11-06T16:12:09.864Z,2.55
2023-11-06T16:15:38.458Z,2.30
2023-11-06T16:19:07.798Z,2.25
2023-11-06T16:22:34.269Z,2.30
2023-11-06T16:26:00.394Z,2.33
2023-11-06T16:29:26.553Z,2.33
2023-11-06T16:32:55.169Z,2.20
2023-11-06T16:36:23.482Z,2.45
2023-11-06T16:39:52.280Z,2.45
2023-11-06T16:43:18.281Z,2.60
2023-11-06T16:46:49.624Z,2.75
2023-11-06T16:50:25.973Z,2.78
2023-11-06T16:53:56.753Z,2.25
2023-11-06T16:57:23.964Z,2.28
2023-11-06T17:00:50.015Z,3.35
2023-11-06T17:04:16.393Z,2.47
2023-11-06T17:07:43.102Z,3.05
2023-11-06T17:11:13.854Z,3.22
2023-11-06T17:14:40.473Z,2.90
2023-11-06T17:18:08.676Z,2.42
2023-11-06T17:21:34.660Z,2.50
2023-11-06T17:25:03.058Z,2.55
2023-11-06T17:28:32.260Z,2.47
2023-11-06T17:31:58.792Z,2.33
2023-11-06T17:35:26.442Z,2.50
2023-11-06T17:38:52.724Z,2.58
2023-11-06T17:42:22.829Z,2.28
2023-11-06T17:45:53.380Z,2.83
2023-11-06T17:49:21.420Z,2.30
2023-11-06T17:52:49.399Z,2.58
2023-11-06T17:56:18.181Z,2.75
2023-11-06T17:59:44.801Z,2.45
2023-11-06T18:03:14.615Z,2.78
2023-11-06T18:06:41.236Z,2.42
2023-11-06T18:10:11.700Z,2.75
2023-11-06T18:13:41.542Z,2.50
2023-11-06T18:17:23.608Z,2.47
2023-11-06T18:20:53.596Z,2.60
2023-11-06T18:24:20.348Z,3.03
2023-11-06T18:27:47.252Z,2.55
2023-11-06T18:31:14.489Z,3.25
2023-11-06T18:34:40.428Z,2.47
2023-11-06T18:38:10.754Z,2.50
2023-11-06T18:41:41.004Z,3.20
2023-11-06T18:45:08.997Z,2.83
2023-11-06T18:48:37.460Z,2.88
2023-11-06T18:52:11.432Z,3.13
2023-11-06T18:55:41.077Z,2.72
2023-11-06T18:59:07.378Z,3.30
2023-11-06T19:02:36.939Z,2.47
2023-11-06T19:06:15.096Z,3.10
2023-11-06T19:09:44.588Z,2.70
2023-11-06T19:13:14.457Z,2.20
2023-11-06T19:16:41.035Z,3.35
2023-11-06T19:20:08.410Z,2.67
2023-11-06T19:23:36.023Z,2.25
2023-11-06T19:27:02.145Z,3.15
2023-11-06T19:30:35.017Z,2.60
2023-11-06T19:37:29.000Z,3.13
2023-11-06T19:40:56.454Z,2.38
2023-11-06T19:44:22.264Z,2.80
2023-11-06T19:47:51.432Z,2.47
2023-11-06T19:51:17.354Z,3.22
2023-11-06T19:54:43.769Z,3.10
2023-11-06T19:58:13.204Z,2.38
2023-11-06T20:01:39.361Z,2.90
2023-11-06T20:05:12.779Z,3.03
2023-11-06T20:08:39.407Z,2.80
2023-11-06T20:12:07.864Z,2.95
2023-11-06T20:15:34.633Z,2.28
2023-11-06T20:19:00.691Z,2.28
2023-11-06T20:22:31.156Z,2.92
2023-11-06T20:25:58.438Z,2.20
2023-11-06T20:29:25.981Z,2.55
2023-11-06T20:32:52.543Z,2.50
2023-11-06T20:36:18.783Z,2.53
2023-11-06T20:39:47.919Z,2.20
2023-11-06T20:43:13.782Z,1.95
2023-11-06T20:46:42.000Z,2.20
2023-11-06T20:50:08.591Z,1.98
2023-11-06T20:53:36.126Z,1.83
2023-11-06T20:57:04.880Z,2.53
2023-11-06T21:00:31.266Z,2.58
2023-11-06T21:03:57.473Z,2.10
2023-11-06T21:07:24.476Z,2.25
2023-11-06T21:10:53.588Z,2.58
2023-11-06T21:14:22.977Z,2.00
2023-11-06T21:17:51.673Z,1.75
2023-11-06T21:21:19.412Z,2.10
2023-11-06T21:24:49.631Z,2.25
2023-11-06T21:28:15.528Z,2.10
2023-11-06T21:31:45.645Z,2.10
2023-11-06T21:35:12.166Z,1.70
2023-11-06T21:38:38.157Z,1.88
2023-11-06T21:42:04.289Z,1.63
2023-11-06T21:45:32.100Z,2.22
2023-11-06T21:49:00.954Z,1.90
2023-11-06T21:52:30.828Z,2.10
2023-11-06T21:55:57.324Z,1.95
2023-11-06T21:59:23.148Z,1.90
2023-11-06T22:02:49.397Z,1.65
2023-11-06T22:06:19.766Z,2.80
2023-11-06T22:09:49.401Z,1.67
2023-11-06T22:13:17.126Z,2.35
2023-11-06T22:16:47.758Z,2.05
2023-11-06T22:20:13.774Z,1.83
2023-11-06T22:23:42.553Z,1.83
2023-11-06T22:27:09.480Z,2.40
2023-11-06T22:30:36.748Z,1.92
2023-11-06T22:34:02.996Z,2.58
2023-11-06T22:37:29.151Z,1.23
2023-11-06T22:40:57.868Z,2.40
2023-11-06T22:44:23.945Z,1.70
2023-11-06T22:47:52.726Z,1.67
2023-11-06T22:51:25.957Z,1.73
2023-11-06T22:54:52.225Z,1.55
2023-11-06T22:58:20.919Z,1.50
2023-11-06T23:01:49.469Z,1.95
2023-11-06T23:05:15.793Z,1.83
2023-11-06T23:08:42.096Z,1.77
2023-11-06T23:12:09.784Z,1.75
2023-11-06T23:15:41.607Z,2.08
2023-11-06T23:19:08.143Z,1.90
2023-11-06T23:22:34.199Z,1.80
2023-11-06T23:26:01.535Z,1.35
2023-11-06T23:29:28.706Z,1.95
2023-11-06T23:32:57.982Z,1.48
2023-11-06T23:36:24.420Z,1.70
2023-11-06T23:39:51.138Z,1.38
2023-11-06T23:43:17.853Z,1.40
2023-11-06T23:46:47.224Z,1.95
2023-11-06T23:50:16.696Z,1.85
2023-11-06T23:53:43.121Z,1.60
2023-11-06T23:57:12.079Z,1.50
